WETTERDATEN

GESTERN
Time Temp. Taup. r.Fe. Druck
00:09 10.2 4.6 68 1024.2
00:19 10.1 4.7 69 1024.1
00:29 10 4.8 70 1024.1
00:39 10 4.8 70 1024.1
00:50 10 4.8 70 1024
01:00 9.9 4.7 70 1023.9
01:09 9.9 4.7 70 1023.8
01:19 9.8 4.6 70 1023.8
01:30 9.8 4.8 71 1023.9
01:40 9.8 4.8 71 1024
01:50 9.7 4.5 70 1024
02:00 9.6 4.6 71 1024
02:10 9.6 4.6 71 1023.9
02:20 9.4 4.6 72 1023.8
02:30 9.3 4.3 71 1023.6
02:41 9.2 4.2 71 1023.5
02:51 9.1 4.1 71 1023.5
03:00 9 4 71 1023.5
03:10 9 4 71 1023.3
03:21 8.9 4.1 72 1023.2
03:31 9 4.2 72 1023.1
03:41 9.1 4.1 71 1023.2
03:51 8.9 3.9 71 1023.1
04:01 8.8 4 72 1023.3
04:11 8.7 3.9 72 1023.3
04:32 8.7 4.1 73 1023.3
04:41 8.6 4 73 1023.1
05:02 8.6 4.2 74 1022.6
05:12 8.6 4.2 74 1022.5
05:22 8.6 4.2 74 1022.5
05:31 8.6 4.2 74 1022.4
05:42 8.6 4.2 74 1022.3
05:52 8.6 4.4 75 1022
06:02 8.6 4.2 74 1021.8
06:12 8.8 4.2 73 1021.9
06:22 8.9 4.1 72 1021.9
06:32 8.9 4.5 74 1021.9
06:42 8.7 4.5 75 1021.8
06:53 8.6 4.4 75 1021.8
07:03 8.6 4.2 74 1021.8
07:12 8.6 4.6 76 1021.8
07:23 8.7 4.5 75 1021.9
07:33 8.7 4.9 77 1021.9
07:43 8.9 4.7 75 1021.9
07:52 9 4.8 75 1022.1
08:03 9.1 4.7 74 1022.3
08:13 8.9 5.1 77 1022.3
08:23 9 4.8 75 1021.9
08:33 9 4.8 75 1021.9
08:44 9 5.2 77 1022
08:53 9.1 5.3 77 1022
09:03 9.3 5.1 75 1021.9
09:14 9.5 5.1 74 1021.9
09:24 9.7 5.3 74 1021.9
09:34 9.6 5.6 76 1021.9
09:44 9.8 5.6 75 1021.9
09:54 9.8 5.8 76 1022
10:04 9.7 5.5 75 1021.9
10:14 9.8 5.2 73 1022
10:25 9.9 5.1 72 1022
10:34 10 5.6 74 1022
10:44 10.1 5.7 74 1021.9
10:54 10.2 5.8 74 1021.8
11:05 10.3 6.1 75 1021.9
11:15 10.5 6.3 75 1021.9
11:24 10.5 6.5 76 1022
11:35 10.6 6.9 78 1021.9
11:45 10.6 6.9 78 1021.9
11:55 10.6 6.9 78 1021.8
12:05 10.7 7.4 80 1021.8
12:15 10.7 7.2 79 1021.8
12:25 10.7 6.6 76 1021.8
12:35 10.8 7.5 80 1021.8
12:46 10.6 7.5 81 1021.8
12:56 10.6 7.7 82 1021.8
13:05 10.5 7.7 83 1021.8
13:15 10.6 8.2 85 1021.8
13:26 10.7 8.1 84 1021.8
13:36 10.6 8.5 87 1021.8
13:46 10.5 8.4 87 1021.8
13:56 10.6 8.4 86 1021.7
14:06 10.6 8.4 86 1021.7
14:16 10.5 8.4 87 1021.7
14:26 10.5 8.4 87 1021.6
14:37 10.6 8.4 86 1021.6
14:46 10.5 8.3 86 1021.3
14:56 10.5 8.4 87 1021.4
15:07 10.6 8.2 85 1021.3
15:17 10.7 8.1 84 1021.3
15:26 10.6 8.9 89 1021.4
15:36 10.8 8.9 88 1021.3
15:47 10.9 8.7 86 1021.2
15:57 10.8 9.1 89 1021.1
16:07 10.7 9 89 1021.1
16:17 10.8 9.1 89 1021.1
16:27 10.8 9.1 89 1020.9
16:37 10.8 9.2 90 1020.8
16:47 10.6 8.7 88 1020.6
16:58 10.7 9 89 1020.6
17:07 10.7 9 89 1020.5
17:17 10.7 9 89 1020.4
17:28 10.8 9.1 89 1020.5
17:38 10.8 8.7 87 1020.4
17:48 10.8 8.9 88 1020.3
17:58 10.8 8.9 88 1020.3
18:08 10.8 9.1 89 1020.3
18:18 10.9 9 88 1020.3
18:28 10.8 8.9 88 1020.4
18:38 10.7 9 89 1020.3
18:49 10.7 9 89 1020.5
18:58 10.7 8.8 88 1020.8
19:08 10.7 8.8 88 1020.8
19:19 10.7 8.8 88 1020.9
19:29 10.6 8.5 87 1020.9
19:38 10.5 8.4 87 1020.9
19:49 10.3 8.6 89 1020.9
19:59 10.3 8.4 88 1020.9
20:09 10.3 8.2 87 1021
20:19 10.3 8.2 87 1020.9
20:30 10.3 8.2 87 1021
20:40 10.3 8.2 87 1021
20:49 10.2 8.1 87 1021.1
20:59 10.1 8.2 88 1021.1
21:10 10.1 8.2 88 1021
21:20 10 8.1 88 1021.1
21:30 10 8.1 88 1021.1
21:40 10 8.1 88 1021.1
21:50 9.8 8.1 89 1021.2
22:00 9.8 8.1 89 1021.2
22:10 9.9 8.2 89 1021.3
22:20 9.8 8.1 89 1021.3
22:30 9.8 8.1 89 1021.3
22:40 9.8 8.1 89 1021.2
22:51 9.7 8 89 1021.1
23:01 9.7 8 89 1020.9
23:11 9.6 7.7 88 1021
23:20 9.6 7.7 88 1021
23:31 9.5 7.8 89 1021.1
23:41 9.6 7.9 89 1021.1
23:51 9.5 7.6 88 1021.1

TAGESSTATISTIK

2022-09-24
TEMPERATUR
MITTEL
9.9
MAXIMUM
10.9
15:47
MINIMUM
8.6
04:41
LUFTDRUCK
MITTEL
1021.9
MAXIMUM
1024.2
00:09
MINIMUM
1020.3
17:48
TAUPUNKT
MITTEL
6.6
MAXIMUM
9.2
16:37
MINIMUM
3.9
03:51
FEUCHTIGKEIT
MITTEL
80
MAXIMUM
90
16:37
MINIMUM
68
00:09
TEMPERATUR (°C)
MINIMUM
8.6
MAXIMUM
10.9
MITTEL
9.9
LUFTDRUCK (hpa)
MINIMUM
1020.3
MAXIMUM
1024.2
MITTEL
1021.9
MESSGERÄT